createdAt,value
2022-08-08T00:00:56.526Z,19.50
2022-08-08T00:03:32.383Z,19.22
2022-08-08T00:06:12.688Z,19.18
2022-08-08T00:08:53.393Z,19.03
2022-08-08T00:11:47.184Z,19.07
2022-08-08T00:14:57.155Z,19.06
2022-08-08T00:18:03.244Z,18.86
2022-08-08T00:20:41.190Z,19.42
2022-08-08T00:23:14.762Z,19.67
2022-08-08T00:25:50.834Z,19.77
2022-08-08T00:28:35.705Z,19.97
2022-08-08T00:32:19.911Z,20.09
2022-08-08T00:34:31.670Z,20.14
2022-08-08T00:37:16.532Z,20.34
2022-08-08T00:41:10.210Z,20.51
2022-08-08T00:43:59.010Z,20.48
2022-08-08T00:46:56.933Z,20.42
2022-08-08T00:49:58.758Z,20.33
2022-08-08T00:52:58.056Z,19.92
2022-08-08T00:55:53.992Z,19.61
2022-08-08T00:58:38.499Z,19.34
2022-08-08T01:01:29.378Z,19.00
2022-08-08T01:04:15.567Z,18.89
2022-08-08T01:07:20.835Z,18.89
2022-08-08T01:10:37.912Z,18.92
2022-08-08T01:13:43.883Z,18.84
2022-08-08T01:16:56.730Z,18.70
2022-08-08T01:20:02.582Z,18.58
2022-08-08T01:22:48.703Z,18.60
2022-08-08T01:25:54.498Z,18.51
2022-08-08T01:28:41.473Z,18.43
2022-08-08T01:32:12.956Z,18.47
2022-08-08T01:34:44.190Z,18.33
2022-08-08T01:37:37.186Z,18.35
2022-08-08T01:40:34.908Z,18.26
2022-08-08T01:43:15.595Z,18.17
2022-08-08T01:45:56.422Z,18.07
2022-08-08T01:49:00.091Z,17.95
2022-08-08T01:52:27.951Z,17.99
2022-08-08T01:55:26.836Z,18.04
2022-08-08T01:58:13.250Z,17.99
2022-08-08T02:00:58.151Z,17.96
2022-08-08T02:04:12.867Z,17.96
2022-08-08T02:06:49.786Z,17.85
2022-08-08T02:10:01.974Z,17.82
2022-08-08T02:12:37.351Z,17.82
2022-08-08T02:15:43.343Z,17.73
2022-08-08T02:18:18.377Z,17.61
2022-08-08T02:21:34.928Z,17.51
2022-08-08T02:24:31.609Z,17.47
2022-08-08T02:27:14.191Z,17.47
2022-08-08T02:29:51.948Z,17.50
2022-08-08T02:32:38.579Z,17.46
2022-08-08T02:35:30.986Z,17.37
2022-08-08T02:38:50.749Z,17.31
2022-08-08T02:42:04.129Z,17.27
2022-08-08T02:44:57.099Z,17.24
2022-08-08T02:48:06.209Z,17.10
2022-08-08T02:50:56.008Z,16.98
2022-08-08T02:54:04.890Z,16.81
2022-08-08T02:57:02.512Z,16.79
2022-08-08T02:59:57.041Z,16.67
2022-08-08T03:03:02.716Z,16.64
2022-08-08T03:05:44.827Z,16.56
2022-08-08T03:08:52.093Z,16.45
2022-08-08T03:12:02.076Z,16.30
2022-08-08T03:15:57.989Z,16.30
2022-08-08T03:18:04.846Z,16.20
2022-08-08T03:20:42.189Z,16.14
2022-08-08T03:23:17.902Z,16.10
2022-08-08T03:25:50.216Z,16.03
2022-08-08T03:28:26.132Z,15.94
2022-08-08T03:31:13.593Z,15.86
2022-08-08T03:34:00.315Z,15.80
2022-08-08T03:36:30.568Z,15.76
2022-08-08T03:39:14.376Z,15.78
2022-08-08T03:42:12.467Z,15.70
2022-08-08T03:44:33.850Z,15.73
2022-08-08T03:47:01.005Z,15.73
2022-08-08T03:49:57.634Z,15.69
2022-08-08T03:52:31.579Z,15.66
2022-08-08T03:55:09.580Z,15.60
2022-08-08T03:58:31.359Z,15.65
2022-08-08T04:00:26.747Z,15.72
2022-08-08T04:02:57.582Z,15.73
2022-08-08T04:05:29.626Z,15.73
2022-08-08T04:07:58.410Z,15.67
2022-08-08T04:10:32.174Z,15.69
2022-08-08T04:12:59.442Z,15.80
2022-08-08T04:15:30.418Z,15.72
2022-08-08T04:18:09.420Z,15.66
2022-08-08T04:20:43.609Z,15.63
2022-08-08T04:23:12.120Z,15.70
2022-08-08T04:25:44.335Z,15.62
2022-08-08T04:28:37.294Z,15.62
2022-08-08T04:31:01.218Z,15.65
2022-08-08T04:33:38.575Z,15.65
2022-08-08T04:36:08.614Z,15.73
2022-08-08T04:38:35.440Z,15.84
2022-08-08T04:41:02.028Z,15.91
2022-08-08T04:43:32.289Z,16.00
2022-08-08T04:46:11.768Z,16.05
2022-08-08T04:48:41.099Z,16.13
2022-08-08T04:51:09.104Z,16.20
2022-08-08T04:54:30.257Z,16.24
2022-08-08T04:56:22.334Z,16.29
2022-08-08T04:58:50.644Z,16.35
2022-08-08T05:01:17.864Z,16.38
2022-08-08T05:04:10.272Z,16.33
2022-08-08T05:06:30.922Z,16.40
2022-08-08T05:09:02.201Z,16.44
2022-08-08T05:11:30.391Z,16.49
2022-08-08T05:14:12.031Z,16.55
2022-08-08T05:16:55.391Z,16.64
2022-08-08T05:20:12.462Z,16.75
2022-08-08T05:22:11.958Z,16.86
2022-08-08T05:24:38.823Z,16.98
2022-08-08T05:27:06.679Z,17.08
2022-08-08T05:29:35.946Z,17.10
2022-08-08T05:32:08.018Z,17.28
2022-08-08T05:34:49.221Z,17.42
2022-08-08T05:37:39.017Z,17.56
2022-08-08T05:40:11.941Z,17.72
2022-08-08T05:42:45.715Z,17.78
2022-08-08T05:45:25.351Z,17.90
2022-08-08T05:48:01.329Z,18.10
2022-08-08T05:50:33.844Z,18.11
2022-08-08T05:53:54.344Z,18.28
2022-08-08T05:56:10.973Z,18.44
2022-08-08T05:58:54.094Z,18.51
2022-08-08T06:01:56.017Z,18.69
2022-08-08T06:04:25.056Z,18.76
2022-08-08T06:07:00.605Z,18.74
2022-08-08T06:09:58.812Z,18.90
2022-08-08T06:12:29.597Z,19.04
2022-08-08T06:15:00.440Z,19.05
2022-08-08T06:17:32.087Z,19.25
2022-08-08T06:20:16.485Z,19.07
2022-08-08T06:22:46.218Z,19.38
2022-08-08T06:25:58.789Z,19.63
2022-08-08T06:28:29.298Z,19.75
2022-08-08T06:30:59.561Z,20.09
2022-08-08T06:34:25.145Z,20.08
2022-08-08T06:36:41.388Z,20.27
2022-08-08T06:39:21.891Z,20.41
2022-08-08T06:41:57.145Z,20.42
2022-08-08T06:44:27.103Z,20.65
2022-08-08T06:46:58.813Z,20.68
2022-08-08T06:49:56.260Z,21.00
2022-08-08T06:52:20.046Z,21.23
2022-08-08T06:54:48.750Z,21.40
2022-08-08T06:57:15.811Z,21.41
2022-08-08T07:00:10.633Z,21.52
2022-08-08T07:02:45.993Z,21.80
2022-08-08T07:05:20.810Z,21.94
2022-08-08T07:08:00.962Z,21.86
2022-08-08T07:10:47.508Z,21.86
2022-08-08T07:13:17.838Z,21.96
2022-08-08T07:16:13.531Z,22.14
2022-08-08T07:19:02.484Z,22.34
2022-08-08T07:21:44.431Z,22.45
2022-08-08T07:24:25.334Z,22.45
2022-08-08T07:26:57.698Z,22.57
2022-08-08T07:29:59.758Z,22.81
2022-08-08T07:32:15.836Z,22.52
2022-08-08T07:34:59.313Z,22.89
2022-08-08T07:37:42.498Z,22.85
2022-08-08T07:40:21.058Z,23.21
2022-08-08T07:42:56.602Z,23.29
2022-08-08T07:45:26.741Z,23.47
2022-08-08T07:48:03.289Z,23.59
2022-08-08T07:50:37.214Z,23.80
2022-08-08T07:53:52.344Z,23.66
2022-08-08T07:56:10.826Z,23.89
2022-08-08T07:58:42.709Z,23.88
2022-08-08T08:01:13.708Z,24.21
2022-08-08T08:04:13.635Z,23.71
2022-08-08T08:06:42.126Z,23.98
2022-08-08T08:09:18.237Z,24.23
2022-08-08T08:11:52.755Z,24.51
2022-08-08T08:14:31.934Z,24.32
2022-08-08T08:16:59.613Z,24.60
2022-08-08T08:19:44.996Z,24.76
2022-08-08T08:22:16.112Z,24.97
2022-08-08T08:25:08.158Z,25.34
2022-08-08T08:27:35.774Z,25.34
2022-08-08T08:30:08.923Z,25.33
2022-08-08T08:32:40.953Z,25.53
2022-08-08T08:35:16.903Z,25.93
2022-08-08T08:38:14.571Z,25.76
2022-08-08T08:40:43.919Z,25.80
2022-08-08T08:43:18.777Z,25.88
2022-08-08T08:45:47.606Z,25.98
2022-08-08T08:48:19.267Z,26.19
2022-08-08T08:50:51.952Z,26.10
2022-08-08T08:53:27.586Z,26.09
2022-08-08T08:56:14.441Z,26.28
2022-08-08T08:58:50.375Z,26.16
2022-08-08T09:01:43.829Z,26.55
2022-08-08T09:04:30.291Z,26.68
2022-08-08T09:07:13.622Z,26.41
2022-08-08T09:09:47.653Z,26.63
2022-08-08T09:12:27.434Z,26.86
2022-08-08T09:14:56.720Z,26.91
2022-08-08T09:17:41.837Z,27.07
2022-08-08T09:21:58.982Z,26.84
2022-08-08T09:23:17.250Z,27.30
2022-08-08T09:26:00.707Z,27.09
2022-08-08T09:28:42.962Z,27.10
2022-08-08T09:31:42.246Z,27.00
2022-08-08T09:34:32.266Z,27.31
2022-08-08T09:37:58.321Z,27.25
2022-08-08T09:40:20.132Z,27.04
2022-08-08T09:42:51.877Z,27.33
2022-08-08T09:46:01.895Z,27.54
2022-08-08T09:48:35.401Z,27.37
2022-08-08T09:51:05.134Z,27.59
2022-08-08T09:53:59.029Z,27.55
2022-08-08T09:56:41.234Z,27.58
2022-08-08T09:59:50.378Z,27.94
2022-08-08T10:02:12.391Z,28.18
2022-08-08T10:04:47.430Z,28.20
2022-08-08T10:07:16.585Z,28.13
2022-08-08T10:09:59.646Z,28.14
2022-08-08T10:12:53.065Z,28.44
2022-08-08T10:15:28.109Z,28.55
2022-08-08T10:18:09.185Z,28.69
2022-08-08T10:20:58.099Z,28.67
2022-08-08T10:23:56.053Z,28.72
2022-08-08T10:26:57.049Z,28.91
2022-08-08T10:29:57.114Z,28.82
2022-08-08T10:32:39.175Z,28.80
2022-08-08T10:36:01.814Z,28.67
2022-08-08T10:38:07.919Z,28.56
2022-08-08T10:40:38.527Z,28.71
2022-08-08T10:43:09.992Z,28.74
2022-08-08T10:45:55.146Z,28.53
2022-08-08T10:48:56.009Z,28.80
2022-08-08T10:51:31.530Z,28.82
2022-08-08T10:54:20.950Z,28.93
2022-08-08T10:57:03.916Z,29.02
2022-08-08T10:59:31.393Z,29.06
2022-08-08T11:02:07.311Z,29.16
2022-08-08T11:04:44.777Z,29.24
2022-08-08T11:08:31.117Z,29.02
2022-08-08T11:10:29.239Z,29.09
2022-08-08T11:13:27.788Z,29.13
2022-08-08T11:15:53.138Z,29.19
2022-08-08T11:18:32.114Z,29.22
2022-08-08T11:21:08.856Z,29.46
2022-08-08T11:23:37.071Z,29.59
2022-08-08T11:26:05.897Z,29.83
2022-08-08T11:28:38.785Z,29.90
2022-08-08T11:31:09.485Z,30.02
2022-08-08T11:33:53.135Z,29.95
2022-08-08T11:36:27.854Z,29.94
2022-08-08T11:39:03.094Z,30.03
2022-08-08T11:41:33.656Z,29.92
2022-08-08T11:44:01.378Z,30.07
2022-08-08T11:46:38.931Z,30.30
2022-08-08T11:49:11.427Z,30.37
2022-08-08T11:51:50.037Z,30.24
2022-08-08T11:54:32.105Z,30.10
2022-08-08T11:57:27.560Z,29.83
2022-08-08T12:00:05.785Z,29.65
2022-08-08T12:02:34.082Z,29.79
2022-08-08T12:05:03.217Z,29.62
2022-08-08T12:07:29.688Z,29.72
2022-08-08T12:10:09.635Z,29.85
2022-08-08T12:12:45.913Z,29.92
2022-08-08T12:15:27.641Z,29.93
2022-08-08T12:18:01.215Z,30.05
2022-08-08T12:20:41.767Z,29.95
2022-08-08T12:23:14.034Z,29.62
2022-08-08T12:25:55.110Z,29.79
2022-08-08T12:28:25.946Z,29.87
2022-08-08T12:31:04.655Z,30.19
2022-08-08T12:33:37.100Z,30.49
2022-08-08T12:36:12.196Z,30.81
2022-08-08T12:38:49.646Z,30.90
2022-08-08T12:41:33.477Z,30.83
2022-08-08T12:44:09.056Z,30.97
2022-08-08T12:46:36.472Z,30.52
2022-08-08T12:49:25.562Z,30.41
2022-08-08T12:52:00.600Z,30.74
2022-08-08T12:54:38.482Z,30.71
2022-08-08T12:57:17.130Z,30.69
2022-08-08T13:00:03.850Z,30.49
2022-08-08T13:02:34.369Z,30.56
2022-08-08T13:05:15.687Z,30.24
2022-08-08T13:08:03.487Z,30.30
2022-08-08T13:10:33.566Z,30.30
2022-08-08T13:13:05.589Z,30.21
2022-08-08T13:15:54.865Z,30.35
2022-08-08T13:18:27.221Z,30.04
2022-08-08T13:20:55.938Z,30.17
2022-08-08T13:23:36.534Z,30.32
2022-08-08T13:26:13.332Z,30.22
2022-08-08T13:28:42.519Z,30.33
2022-08-08T13:31:12.791Z,30.33
2022-08-08T13:33:47.298Z,30.24
2022-08-08T13:36:26.327Z,30.10
2022-08-08T13:38:54.208Z,30.06
2022-08-08T13:41:22.092Z,30.15
2022-08-08T13:43:50.804Z,30.14
2022-08-08T13:46:27.193Z,30.13
2022-08-08T13:49:11.946Z,30.16
2022-08-08T13:52:02.541Z,30.31
2022-08-08T13:54:34.780Z,30.23
2022-08-08T13:57:15.954Z,30.23
2022-08-08T13:59:48.555Z,30.31
2022-08-08T14:02:20.604Z,30.22
2022-08-08T14:05:04.791Z,30.19
2022-08-08T14:07:44.620Z,30.15
2022-08-08T14:10:33.556Z,30.28
2022-08-08T14:13:20.736Z,30.21
2022-08-08T14:16:02.376Z,30.29
2022-08-08T14:18:36.618Z,29.99
2022-08-08T14:21:20.905Z,30.05
2022-08-08T14:24:04.563Z,30.12
2022-08-08T14:26:41.667Z,30.17
2022-08-08T14:29:28.088Z,30.20
2022-08-08T14:32:09.036Z,30.16
2022-08-08T14:34:42.885Z,30.18
2022-08-08T14:37:13.042Z,29.97
2022-08-08T14:39:49.408Z,29.85
2022-08-08T14:42:27.468Z,29.88
2022-08-08T14:45:01.786Z,29.83
2022-08-08T14:47:30.310Z,29.93
2022-08-08T14:50:22.577Z,29.82
2022-08-08T14:53:04.342Z,29.92
2022-08-08T14:55:41.412Z,29.97
2022-08-08T14:58:19.981Z,29.96
2022-08-08T15:00:52.900Z,29.94
2022-08-08T15:03:20.978Z,29.82
2022-08-08T15:05:54.007Z,29.85
2022-08-08T15:08:35.620Z,29.90
2022-08-08T15:11:11.001Z,29.92
2022-08-08T15:14:03.142Z,29.90
2022-08-08T15:16:27.902Z,29.86
2022-08-08T15:18:57.038Z,29.85
2022-08-08T15:21:27.610Z,29.69
2022-08-08T15:23:56.659Z,29.64
2022-08-08T15:26:25.681Z,29.65
2022-08-08T15:28:54.157Z,29.66
2022-08-08T15:31:56.353Z,29.57
2022-08-08T15:34:08.544Z,29.57
2022-08-08T15:36:35.284Z,29.65
2022-08-08T15:39:05.316Z,29.67
2022-08-08T15:41:43.573Z,29.66
2022-08-08T15:44:13.367Z,29.57
2022-08-08T15:46:45.247Z,29.55
2022-08-08T15:49:17.038Z,29.70
2022-08-08T15:51:43.587Z,29.61
2022-08-08T15:54:18.455Z,29.53
2022-08-08T15:56:58.911Z,29.47
2022-08-08T16:00:06.291Z,29.54
2022-08-08T16:02:14.469Z,29.52
2022-08-08T16:04:42.388Z,29.52
2022-08-08T16:07:09.068Z,29.48
2022-08-08T16:13:10.890Z,29.39
2022-08-08T16:13:13.954Z,29.41
2022-08-08T16:15:09.157Z,29.37
2022-08-08T16:18:06.315Z,29.42
2022-08-08T16:20:30.914Z,29.40
2022-08-08T16:22:57.459Z,29.43
2022-08-08T16:25:24.475Z,29.42
2022-08-08T16:28:34.168Z,29.44
2022-08-08T16:30:59.036Z,29.38
2022-08-08T16:33:38.656Z,29.38
2022-08-08T16:36:08.543Z,29.43
2022-08-08T16:38:47.311Z,29.44
2022-08-08T16:41:22.456Z,29.42
2022-08-08T16:43:51.872Z,29.42
2022-08-08T16:46:43.196Z,29.49
2022-08-08T16:49:09.125Z,29.50
2022-08-08T16:55:01.174Z,29.44
2022-08-08T16:55:02.363Z,29.46
2022-08-08T16:57:27.881Z,29.45
2022-08-08T17:00:01.198Z,29.48
2022-08-08T17:02:39.613Z,29.45
2022-08-08T17:05:08.344Z,29.42
2022-08-08T17:07:37.513Z,29.39
2022-08-08T17:10:07.350Z,29.36
2022-08-08T17:12:46.884Z,29.32
2022-08-08T17:15:25.609Z,29.25
2022-08-08T17:18:13.433Z,29.26
2022-08-08T17:20:42.468Z,29.25
2022-08-08T17:23:17.545Z,29.21
2022-08-08T17:25:57.056Z,29.20
2022-08-08T17:28:34.962Z,29.19
2022-08-08T17:31:39.184Z,29.22
2022-08-08T17:34:36.902Z,29.20
2022-08-08T17:37:00.626Z,29.11
2022-08-08T17:40:04.297Z,29.06
2022-08-08T17:42:19.402Z,29.06
2022-08-08T17:44:49.190Z,28.98
2022-08-08T17:47:23.797Z,28.94
2022-08-08T17:50:10.119Z,28.97
2022-08-08T17:52:38.011Z,28.93
2022-08-08T17:55:22.453Z,28.86
2022-08-08T17:57:55.000Z,28.83
2022-08-08T18:00:30.274Z,28.80
2022-08-08T18:03:08.861Z,28.76
2022-08-08T18:05:48.341Z,28.70
2022-08-08T18:08:25.239Z,28.63
2022-08-08T18:11:14.884Z,28.54
2022-08-08T18:13:43.215Z,28.29
2022-08-08T18:16:11.026Z,28.39
2022-08-08T18:18:45.236Z,28.40
2022-08-08T18:21:35.160Z,28.42
2022-08-08T18:24:07.435Z,28.35
2022-08-08T18:26:53.428Z,28.25
2022-08-08T18:29:29.634Z,28.24
2022-08-08T18:32:03.347Z,28.21
2022-08-08T18:34:30.562Z,28.13
2022-08-08T18:37:00.375Z,28.15
2022-08-08T18:39:28.222Z,28.08
2022-08-08T18:42:02.819Z,27.97
2022-08-08T18:44:34.665Z,27.85
2022-08-08T18:47:02.794Z,27.79
2022-08-08T18:49:32.716Z,27.77
2022-08-08T18:52:22.305Z,27.77
2022-08-08T18:54:59.376Z,27.72
2022-08-08T18:57:36.876Z,27.69
2022-08-08T19:00:15.428Z,27.64
2022-08-08T19:02:56.859Z,27.55
2022-08-08T19:05:34.162Z,27.48
2022-08-08T19:08:10.199Z,27.44
2022-08-08T19:10:53.407Z,27.39
2022-08-08T19:13:21.584Z,27.31
2022-08-08T19:15:48.514Z,27.28
2022-08-08T19:18:31.334Z,27.20
2022-08-08T19:21:05.571Z,27.18
2022-08-08T19:23:56.111Z,27.10
2022-08-08T19:26:29.911Z,27.00
2022-08-08T19:28:57.187Z,26.98
2022-08-08T19:31:31.491Z,26.86
2022-08-08T19:34:36.235Z,26.83
2022-08-08T19:36:52.259Z,26.78
2022-08-08T19:39:19.472Z,26.69
2022-08-08T19:41:51.878Z,26.57
2022-08-08T19:44:42.418Z,26.46
2022-08-08T19:47:06.538Z,26.26
2022-08-08T19:49:38.047Z,25.96
2022-08-08T19:52:05.485Z,25.81
2022-08-08T19:54:31.987Z,25.53
2022-08-08T19:56:58.942Z,25.39
2022-08-08T19:59:34.975Z,25.13
2022-08-08T20:02:06.870Z,24.84
2022-08-08T20:04:37.734Z,24.89
2022-08-08T20:08:28.825Z,24.74
2022-08-08T20:09:57.060Z,24.62
2022-08-08T20:12:32.205Z,24.54
2022-08-08T20:15:02.306Z,24.36
2022-08-08T20:17:41.947Z,24.39
2022-08-08T20:20:19.161Z,24.59
2022-08-08T20:22:52.421Z,24.66
2022-08-08T20:25:20.737Z,24.69
2022-08-08T20:27:50.323Z,24.76
2022-08-08T20:30:53.368Z,24.73
2022-08-08T20:33:08.068Z,24.67
2022-08-08T20:35:56.763Z,24.72
2022-08-08T20:38:29.113Z,24.65
2022-08-08T20:41:05.984Z,24.59
2022-08-08T20:43:49.681Z,24.61
2022-08-08T20:46:20.287Z,24.63
2022-08-08T20:48:47.624Z,24.68
2022-08-08T20:51:14.306Z,24.72
2022-08-08T20:54:01.177Z,24.74
2022-08-08T20:56:35.908Z,24.66
2022-08-08T20:59:05.893Z,24.58
2022-08-08T21:01:33.340Z,24.27
2022-08-08T21:04:19.641Z,24.17
2022-08-08T21:06:52.585Z,24.02
2022-08-08T21:09:21.587Z,24.01
2022-08-08T21:11:51.285Z,23.86
2022-08-08T21:14:30.518Z,23.72
2022-08-08T21:17:06.356Z,23.60
2022-08-08T21:19:44.160Z,23.49
2022-08-08T21:22:11.733Z,23.44
2022-08-08T21:24:39.375Z,23.28
2022-08-08T21:27:15.523Z,23.27
2022-08-08T21:30:03.809Z,23.17
2022-08-08T21:32:33.115Z,23.03
2022-08-08T21:36:16.379Z,23.00
2022-08-08T21:37:53.705Z,23.04
2022-08-08T21:40:31.458Z,23.05
2022-08-08T21:42:58.679Z,23.02
2022-08-08T21:47:59.747Z,23.04
2022-08-08T21:48:19.875Z,23.03
2022-08-08T21:50:49.535Z,23.05
2022-08-08T21:54:23.065Z,22.98
2022-08-08T21:56:24.630Z,22.72
2022-08-08T21:58:54.972Z,22.71
2022-08-08T22:01:38.759Z,22.58
2022-08-08T22:04:07.267Z,22.44
2022-08-08T22:06:37.955Z,22.31
2022-08-08T22:09:09.777Z,22.49
2022-08-08T22:11:52.897Z,22.49
2022-08-08T22:14:26.799Z,22.54
2022-08-08T22:16:56.024Z,22.40
2022-08-08T22:19:23.755Z,22.46
2022-08-08T22:21:51.124Z,22.23
2022-08-08T22:24:17.652Z,22.37
2022-08-08T22:27:02.219Z,22.23
2022-08-08T22:30:01.193Z,22.09
2022-08-08T22:32:17.911Z,22.18
2022-08-08T22:34:50.774Z,22.27
2022-08-08T22:37:48.737Z,22.31
2022-08-08T22:40:16.384Z,22.32
2022-08-08T22:42:43.344Z,22.45
2022-08-08T22:45:14.188Z,22.49
2022-08-08T22:47:47.015Z,22.58
2022-08-08T22:50:26.113Z,22.68
2022-08-08T22:54:17.025Z,22.75
2022-08-08T22:55:58.517Z,22.84
2022-08-08T22:58:38.692Z,22.80
2022-08-08T23:01:16.716Z,22.89
2022-08-08T23:04:01.716Z,22.92
2022-08-08T23:06:28.301Z,22.92
2022-08-08T23:08:59.002Z,22.97
2022-08-08T23:11:31.195Z,22.99
2022-08-08T23:14:20.362Z,23.02
2022-08-08T23:16:59.417Z,23.04
2022-08-08T23:19:34.141Z,23.05
2022-08-08T23:22:02.202Z,23.11
2022-08-08T23:24:36.793Z,23.10
2022-08-08T23:27:11.461Z,23.09
2022-08-08T23:29:57.341Z,23.07
2022-08-08T23:32:26.589Z,23.13
2022-08-08T23:34:58.752Z,23.09
2022-08-08T23:38:00.960Z,23.07
2022-08-08T23:40:22.844Z,23.03
2022-08-08T23:42:49.459Z,23.09
2022-08-08T23:45:18.060Z,23.14
2022-08-08T23:49:07.967Z,23.19
2022-08-08T23:50:31.377Z,23.14
2022-08-08T23:52:59.064Z,23.02
2022-08-08T23:55:31.947Z,23.06
2022-08-08T23:57:58.629Z,22.97
